EIN weather

Eindhoven Airport
Eindhoven, Noord-Brabant, Netherlands

Public forecast

Using degrees Celsius for public forecast. Weather courtesy of forecast.io.

METAR (pilot weather report)

Retrieved 2019/03/25 05:25 UTC (0 seconds ago):

EHEH 250525Z AUTO 29008KT 250V330 9999 FEW027 05/02 Q1021 BLU 29010KT 9999 FEW020 SCT025 BKN040 TEMPO 32015G30KT FEW012 SCT018CB BKN025

TAF (pilot weather forecast)

Retrieved 2019/03/25 00:00 UTC (5 hours ago):

TAF EHEH 242354Z 2500/2606 25007KT CAVOK BECMG 2501/2503 31012KT TEMPO 2502/2510 FEW012 SCT018CB BKN020 PROB30 TEMPO 2506/2509 33016G33KT 4000 SHRAGS SCT015CB BKN018 BECMG 2507/2509 32016G30KT PROB40 TEMPO 2510/2516 33018G33KT FEW020CB BKN025 BECMG 2516/2518 33010G20KT BECMG 2519/2521 31006KT